Portada
METAR-TAF:

METAR-TAF

Aeropuertos :

Sanandaj, Irán

latitud: 35-20N, longitud: 047-00E, altitud: 1373 m

Observación

El informe se hizo hace 1 hora y 21 minutos, a las 23:00 UTC
Viento calma
Temperatura 13°C
Humedad 54%
Presión 1017 hPa
Visibilidad: 4000 m
Polvo extendido

METAR: OICS 172300Z 00000KT 4000 DU NSC 13/04 Q1016 A3002

Hora: 04:51 (00:21 UTC)


TAF: falta

Observaciones y pronósticos meteorológicos de más de 4000 aeropuertos (mensajes METAR y TAF).

Los puntos amarillos y rojos representan las estaciones disponibles.

Ponga el ratón en el punto deseado para ver el nombre de la estación.

Haga clic para ver las observaciones y los pronósticos meteorológicos.

Para cambiar el mapa : haga clic en los botones verdes con una cruz de color negro para hacer un zoom, en el botón verde con un guión para alejar o en las flechas verdes para mapas adyacentes.


METAR-TAF: